METAR Data
IDs: Format: Raw Decoded Include TAF

Data at: 2013 UTC 31 Jan 2023

KRZL 311955Z AUTO 25008KT 10SM CLR M07/M15 A3036 RMK AO2